Time;durP1;ratioP1;P1;durP2;ratioP2;P2;SDS_P1;SDS_P2;PMS_P1;PMS_P2;Temp;Humidity;BMP_temperature;BMP_pressure;BME280_temperature;BME280_humidity;BME280_pressure;Samples;Min_cycle;Max_cycle;Signal;HPM_P1;HPM_P2
2022/12/23 07:07:45;;;;;;;2.70;1.33;;;9.40;99.90;;;;;;7613532;19;20381;-71
2022/12/23 07:10:17;;;;;;;3.90;1.42;;;9.40;99.90;;;;;;7628968;19;20018;-70
2022/12/23 07:12:50;;;;;;;2.70;1.57;;;9.40;99.90;;;;;;7584803;19;20018;-70
2022/12/23 07:15:22;;;;;;;2.60;1.17;;;9.60;99.90;;;;;;7589030;19;20016;-71
2022/12/23 07:17:54;;;;;;;2.17;1.33;;;9.60;99.90;;;;;;7598116;19;20486;-71
2022/12/23 07:20:26;;;;;;;5.38;2.65;;;9.80;99.90;;;;;;7611845;19;20022;-71
2022/12/23 07:22:58;;;;;;;4.38;1.45;;;9.90;99.90;;;;;;7590675;19;20126;-71
2022/12/23 07:25:30;;;;;;;6.65;2.47;;;9.90;99.90;;;;;;7605638;19;21148;-72
2022/12/23 07:28:03;;;;;;;4.25;2.03;;;9.90;99.90;;;;;;7604799;19;20014;-71
2022/12/23 07:30:35;;;;;;;11.50;2.42;;;10.00;99.90;;;;;;7600645;19;20029;-71
2022/12/23 07:33:07;;;;;;;5.13;2.72;;;10.10;99.90;;;;;;7588126;19;20089;-71
2022/12/23 07:35:41;;;;;;;3.78;1.35;;;10.10;99.90;;;;;;7625189;19;20021;-71
2022/12/23 07:38:13;;;;;;;;;;;10.20;99.90;;;;;;7615408;19;20026;-72
2022/12/23 07:40:48;;;;;;;5.75;2.53;;;10.10;99.90;;;;;;7599085;19;21181;-71
2022/12/23 07:43:20;;;;;;;7.05;2.88;;;10.10;99.90;;;;;;7601673;19;20063;-71
2022/12/23 07:45:52;;;;;;;11.68;4.25;;;10.10;99.90;;;;;;7582330;19;20135;-70
2022/12/23 07:48:31;;;;;;;9.43;3.25;;;10.20;99.90;;;;;;7572225;19;20051;-72
2022/12/23 07:51:03;;;;;;;7.75;3.53;;;10.30;99.90;;;;;;7598680;19;20018;-71
2022/12/23 07:53:35;;;;;;;12.52;4.90;;;10.30;99.90;;;;;;7601873;19;20681;-71
2022/12/23 07:56:07;;;;;;;10.95;4.38;;;10.30;99.90;;;;;;7602056;19;20014;-71
2022/12/23 07:58:40;;;;;;;6.85;2.30;;;10.30;99.90;;;;;;7576080;19;21189;-70
2022/12/23 08:01:12;;;;;;;7.50;3.35;;;10.30;99.90;;;;;;7595978;19;20643;-71
2022/12/23 08:03:45;;;;;;;8.38;2.97;;;10.30;99.90;;;;;;7601353;19;20024;-70
2022/12/23 08:06:17;;;;;;;16.87;7.20;;;10.30;99.90;;;;;;7620657;19;20098;-71
2022/12/23 08:08:49;;;;;;;14.73;6.03;;;10.30;99.90;;;;;;7585373;19;20010;-72
2022/12/23 08:11:21;;;;;;;9.73;3.78;;;10.40;99.90;;;;;;7615843;19;20051;-72
2022/12/23 08:13:54;;;;;;;10.68;4.88;;;10.40;99.90;;;;;;7613029;19;20052;-70
2022/12/23 08:16:26;;;;;;;10.63;4.50;;;10.40;99.90;;;;;;7609716;19;20022;-71
2022/12/23 08:18:58;;;;;;;6.82;3.25;;;10.50;99.90;;;;;;7564571;19;20022;-70
2022/12/23 08:21:30;;;;;;;14.48;6.05;;;10.50;99.90;;;;;;7571325;19;20018;-71
2022/12/23 08:24:02;;;;;;;7.28;2.90;;;10.50;99.90;;;;;;7604802;19;20025;-72
2022/12/23 08:26:34;;;;;;;8.40;2.58;;;10.60;99.90;;;;;;7593559;19;20026;-71
2022/12/23 08:29:06;;;;;;;10.48;4.40;;;10.70;99.90;;;;;;7587284;19;20106;-72
2022/12/23 08:31:39;;;;;;;4.35;1.27;;;10.70;99.90;;;;;;7572278;19;20025;-71
2022/12/23 08:34:11;;;;;;;4.68;2.13;;;10.80;99.90;;;;;;7587591;19;20018;-71
2022/12/23 08:36:43;;;;;;;7.03;3.08;;;10.80;99.90;;;;;;7588052;19;20471;-72
2022/12/23 08:39:15;;;;;;;6.68;3.50;;;10.80;99.90;;;;;;7595705;19;20386;-71
2022/12/23 08:41:47;;;;;;;3.17;1.17;;;10.80;99.90;;;;;;7584952;19;20010;-70
2022/12/23 08:44:20;;;;;;;8.93;3.53;;;10.90;99.90;;;;;;7592862;19;20026;-71
2022/12/23 08:46:56;;;;;;;9.23;4.43;;;10.90;99.90;;;;;;7579244;19;20022;-71
2022/12/23 08:49:28;;;;;;;4.95;2.00;;;11.00;99.90;;;;;;7596470;19;20085;-70
2022/12/23 08:52:00;;;;;;;8.90;3.28;;;11.00;99.90;;;;;;7584832;19;20049;-72
2022/12/23 08:54:32;;;;;;;8.77;4.65;;;11.00;99.90;;;;;;7587014;19;20019;-73
2022/12/23 08:57:05;;;;;;;2.20;1.27;;;11.00;99.90;;;;;;7598962;19;20655;-72
2022/12/23 08:59:37;;;;;;;1.70;1.08;;;11.10;99.90;;;;;;7598335;19;20101;-72
2022/12/23 09:02:13;;;;;;;1.40;0.80;;;11.20;99.90;;;;;;7601460;19;20014;-73
2022/12/23 09:04:45;;;;;;;1.17;0.85;;;11.30;99.90;;;;;;7554645;19;20030;-71
2022/12/23 09:07:17;;;;;;;0.90;0.77;;;11.20;99.90;;;;;;7599427;19;20021;-73
2022/12/23 09:09:49;;;;;;;0.88;0.63;;;11.30;99.90;;;;;;7593555;19;20467;-72
2022/12/23 09:12:21;;;;;;;1.10;0.80;;;11.30;99.90;;;;;;7597889;19;20724;-72
2022/12/23 09:14:54;;;;;;;1.67;1.05;;;11.30;99.90;;;;;;7583643;19;20014;-72
2022/12/23 09:17:26;;;;;;;7.45;2.95;;;11.30;99.90;;;;;;7593930;19;20118;-71
2022/12/23 09:19:59;;;;;;;6.63;3.63;;;11.30;99.90;;;;;;7587630;19;25616;-72
2022/12/23 09:22:34;;;;;;;7.18;3.30;;;11.30;99.90;;;;;;7587161;19;20018;-71
2022/12/23 09:25:07;;;;;;;5.20;2.85;;;11.30;99.90;;;;;;7594079;19;20015;-72
2022/12/23 09:27:39;;;;;;;2.60;1.50;;;11.30;99.90;;;;;;7586403;19;20564;-73
2022/12/23 09:30:12;;;;;;;1.17;1.00;;;11.30;99.90;;;;;;7599373;19;20014;-73
2022/12/23 09:32:44;;;;;;;1.52;1.00;;;11.40;99.90;;;;;;7589198;19;22527;-72
2022/12/23 09:35:16;;;;;;;1.67;0.90;;;11.30;99.90;;;;;;7577576;19;20744;-71
2022/12/23 09:37:48;;;;;;;1.10;1.00;;;11.50;99.90;;;;;;7569839;19;20014;-71
2022/12/23 09:40:22;;;;;;;2.00;1.10;;;11.40;99.90;;;;;;7579406;19;20090;-72
2022/12/23 09:43:28;;;;;;;3.10;1.50;;;11.40;99.90;;;;;;7585242;19;20018;-72
2022/12/23 09:46:06;;;;;;;2.80;1.33;;;11.50;99.90;;;;;;7577386;19;20053;-71
2022/12/23 09:48:46;;;;;;;1.00;0.70;;;11.60;99.90;;;;;;7583386;19;20015;-72
2022/12/23 09:51:22;;;;;;;5.47;2.10;;;11.60;99.90;;;;;;7600004;19;20613;-73
2022/12/23 09:54:21;;;;;;;2.35;1.45;;;11.60;99.90;;;;;;7603298;19;20018;-72
2022/12/23 09:56:57;;;;;;;1.88;1.30;;;11.60;99.90;;;;;;7608416;19;20018;-72
2022/12/23 09:59:39;;;;;;;0.88;0.80;;;11.60;99.90;;;;;;7607792;19;20061;-71
2022/12/23 10:02:41;;;;;;;6.82;0.95;;;11.60;99.90;;;;;;7605696;19;20057;-71
2022/12/23 10:05:42;;;;;;;3.72;1.00;;;11.70;99.90;;;;;;7607034;19;20018;-71
2022/12/23 10:08:28;;;;;;;2.08;1.55;;;11.70;99.90;;;;;;7605040;19;20055;-72
2022/12/23 10:11:06;;;;;;;2.38;1.10;;;11.70;99.90;;;;;;7613496;19;20023;-72
2022/12/23 10:13:42;;;;;;;0.80;0.50;;;11.70;99.90;;;;;;7594429;19;20010;-71
2022/12/23 10:16:22;;;;;;;1.88;0.80;;;11.70;99.90;;;;;;7607084;19;20441;-71
2022/12/23 10:19:16;;;;;;;1.27;0.85;;;11.70;99.90;;;;;;7588723;19;20466;-72
2022/12/23 10:21:54;;;;;;;0.70;0.70;;;11.70;99.90;;;;;;7588462;19;20679;-71
2022/12/23 10:24:34;;;;;;;1.45;0.52;;;11.70;99.90;;;;;;7589316;19;20601;-71
2022/12/23 10:27:30;;;;;;;0.55;0.47;;;11.80;99.90;;;;;;7594430;19;20017;-73
2022/12/23 10:30:17;;;;;;;1.10;0.77;;;11.80;99.90;;;;;;7572350;19;20983;-70
2022/12/23 10:33:29;;;;;;;0.50;0.50;;;11.80;99.90;;;;;;7573954;19;20018;-71
2022/12/23 10:36:22;;;;;;;1.30;0.30;;;11.80;99.90;;;;;;7573633;19;20017;-71
2022/12/23 10:39:15;;;;;;;2.83;0.90;;;11.80;99.90;;;;;;7541019;19;20070;-72
2022/12/23 10:41:54;;;;;;;0.70;0.40;;;11.80;99.90;;;;;;7532771;19;20048;-71
2022/12/23 10:44:50;;;;;;;0.85;0.60;;;11.80;99.90;;;;;;7571648;19;20718;-70
2022/12/23 10:47:47;;;;;;;3.00;0.50;;;11.80;99.90;;;;;;7559520;19;20019;-72
2022/12/23 10:50:47;;;;;;;1.98;0.47;;;11.90;99.90;;;;;;7568920;19;20047;-71
2022/12/23 10:53:37;;;;;;;4.68;0.90;;;11.90;99.90;;;;;;7558761;19;20390;-71
2022/12/23 10:56:10;;;;;;;2.15;0.65;;;11.90;99.90;;;;;;7587972;19;20037;-71
2022/12/23 10:58:48;;;;;;;1.90;0.70;;;11.80;99.90;;;;;;7578254;19;20029;-72
2022/12/23 11:01:21;;;;;;;0.95;0.50;;;11.80;99.90;;;;;;7585766;19;20010;-72
2022/12/23 11:04:05;;;;;;;8.32;1.33;;;11.70;99.90;;;;;;7593089;19;20034;-72
2022/12/23 11:06:48;;;;;;;3.40;1.20;;;11.70;99.90;;;;;;7581760;19;20011;-72
2022/12/23 11:09:42;;;;;;;0.90;0.70;;;11.60;99.90;;;;;;7589831;19;20114;-72
2022/12/23 11:12:14;;;;;;;0.98;0.70;;;11.70;99.90;;;;;;7570421;19;20075;-71
2022/12/23 11:14:51;;;;;;;2.00;1.33;;;11.70;99.90;;;;;;7578899;19;20011;-71
2022/12/23 11:17:25;;;;;;;2.40;1.20;;;11.80;99.90;;;;;;7549193;19;20118;-69
2022/12/23 11:20:09;;;;;;;3.28;1.23;;;11.80;99.90;;;;;;7565262;19;20026;-72
2022/12/23 11:22:49;;;;;;;2.90;1.02;;;11.90;99.90;;;;;;7536874;19;20343;-70
2022/12/23 11:25:37;;;;;;;0.90;0.52;;;12.00;99.90;;;;;;7584584;19;20811;-72
2022/12/23 11:28:09;;;;;;;1.55;0.80;;;12.00;99.90;;;;;;7563988;19;20014;-71
2022/12/23 11:30:45;;;;;;;1.23;0.80;;;12.10;99.90;;;;;;7580663;19;20022;-72
2022/12/23 11:33:28;;;;;;;;;;;12.10;99.90;;;;;;7579467;19;20024;-72
2022/12/23 11:36:12;;;;;;;3.20;0.90;;;12.10;99.90;;;;;;7571178;19;19918;-71
2022/12/23 11:38:52;;;;;;;4.10;1.17;;;12.10;99.90;;;;;;7558418;19;20018;-71
2022/12/23 11:41:28;;;;;;;2.75;1.20;;;12.00;99.90;;;;;;7557170;19;20014;-71
2022/12/23 11:44:16;;;;;;;6.18;1.85;;;11.90;99.90;;;;;;7555973;19;20011;-71
2022/12/23 11:46:49;;;;;;;3.78;1.20;;;12.00;99.90;;;;;;7557221;19;20064;-72
2022/12/23 11:49:24;;;;;;;1.95;1.08;;;12.00;99.90;;;;;;7568365;19;20021;-71
2022/12/23 11:52:13;;;;;;;1.17;0.82;;;12.00;99.90;;;;;;7569540;19;20046;-70
2022/12/23 11:54:53;;;;;;;1.25;0.90;;;12.00;99.90;;;;;;7575986;19;21269;-70
2022/12/23 11:57:38;;;;;;;3.08;1.17;;;12.00;99.90;;;;;;7583593;19;20531;-70
2022/12/23 12:00:41;;;;;;;3.25;0.60;;;12.10;99.90;;;;;;7602050;19;20628;-70
2022/12/23 12:03:18;;;;;;;1.77;0.80;;;12.10;99.90;;;;;;7595814;19;20011;-71
2022/12/23 12:06:03;;;;;;;2.53;1.00;;;12.00;99.90;;;;;;7589001;19;20015;-70
2022/12/23 12:08:39;;;;;;;2.72;1.40;;;12.00;99.90;;;;;;7569892;19;20089;-71
2022/12/23 12:11:13;;;;;;;;;;;12.00;99.90;;;;;;7601339;19;20613;-72
2022/12/23 12:13:55;;;;;;;2.00;1.35;;;12.00;99.90;;;;;;7583170;19;19925;-71
2022/12/23 12:16:46;;;;;;;1.42;0.90;;;12.00;99.90;;;;;;7578827;19;20014;-71
2022/12/23 12:19:38;;;;;;;0.80;0.77;;;12.00;99.90;;;;;;7561052;19;20482;-71
2022/12/23 12:22:27;;;;;;;2.85;1.17;;;12.00;99.90;;;;;;7578206;19;20016;-71
2022/12/23 12:25:29;;;;;;;2.22;1.00;;;12.00;99.90;;;;;;7568699;19;20025;-71
2022/12/23 12:28:22;;;;;;;0.95;0.60;;;12.00;99.90;;;;;;7589495;19;20018;-70
2022/12/23 12:31:04;;;;;;;2.92;1.25;;;12.00;99.90;;;;;;7597740;19;20018;-72
2022/12/23 12:33:47;;;;;;;1.65;0.75;;;12.10;99.90;;;;;;7590076;19;20021;-72
2022/12/23 12:36:27;;;;;;;1.60;1.00;;;12.10;99.90;;;;;;7570796;19;20027;-70
2022/12/23 12:38:59;;;;;;;1.55;0.68;;;12.10;99.90;;;;;;7564986;19;20030;-69
2022/12/23 12:41:39;;;;;;;0.65;0.52;;;12.00;99.90;;;;;;7568614;19;20018;-70
2022/12/23 12:44:26;;;;;;;2.90;0.85;;;12.00;99.90;;;;;;7572938;19;20022;-71
2022/12/23 12:47:34;;;;;;;2.83;0.98;;;11.90;99.90;;;;;;7588245;19;20010;-70
2022/12/23 12:50:30;;;;;;;1.13;0.73;;;11.70;99.90;;;;;;7582432;19;20027;-70
2022/12/23 12:53:11;;;;;;;2.25;1.33;;;11.70;99.90;;;;;;7588285;19;20018;-70
2022/12/23 12:55:52;;;;;;;2.92;0.95;;;11.60;99.90;;;;;;7585457;19;20812;-70
2022/12/23 12:58:24;;;;;;;1.20;0.90;;;11.50;99.90;;;;;;7587495;19;20138;-72
2022/12/23 13:01:02;;;;;;;2.67;1.10;;;11.40;99.90;;;;;;7586826;19;20145;-71
2022/12/23 13:04:05;;;;;;;3.75;0.75;;;11.30;99.90;;;;;;7607089;19;20022;-71
2022/12/23 13:06:52;;;;;;;2.58;1.08;;;11.20;99.90;;;;;;7581834;19;20051;-69
2022/12/23 13:09:42;;;;;;;4.15;1.48;;;11.20;99.90;;;;;;7599055;19;20494;-70
2022/12/23 13:12:42;;;;;;;3.38;1.17;;;11.10;99.90;;;;;;7605661;19;22789;-71
2022/12/23 13:15:31;;;;;;;1.70;1.20;;;11.20;99.90;;;;;;7585140;19;20014;-71
2022/12/23 13:18:15;;;;;;;2.78;1.10;;;11.10;99.90;;;;;;7593109;19;20819;-71
2022/12/23 13:21:09;;;;;;;3.30;1.42;;;11.00;99.90;;;;;;7578717;19;25110;-71
2022/12/23 13:23:49;;;;;;;1.42;1.10;;;10.90;99.90;;;;;;7569011;19;20020;-71
2022/12/23 13:26:25;;;;;;;9.63;1.75;;;10.80;99.90;;;;;;7590880;19;20044;-70
2022/12/23 13:29:20;;;;;;;3.35;1.25;;;10.80;99.90;;;;;;7586893;19;25128;-71
2022/12/23 13:32:15;;;;;;;2.72;0.90;;;10.70;99.90;;;;;;7596215;19;20026;-70
2022/12/23 13:35:18;;;;;;;5.55;1.13;;;10.80;99.90;;;;;;7585027;19;20010;-71
2022/12/23 13:38:03;;;;;;;4.15;1.50;;;10.80;99.90;;;;;;7601799;19;20517;-70
2022/12/23 13:40:58;;;;;;;3.55;1.60;;;10.90;99.90;;;;;;7596964;19;20023;-71
2022/12/23 13:43:46;;;;;;;3.28;1.40;;;10.90;99.90;;;;;;7611097;19;20074;-71
2022/12/23 13:46:43;;;;;;;4.07;2.00;;;10.80;99.90;;;;;;7608980;19;20013;-71
2022/12/23 13:49:39;;;;;;;4.05;1.77;;;10.80;99.90;;;;;;7597685;19;20023;-70
2022/12/23 13:52:33;;;;;;;5.30;2.38;;;10.80;99.90;;;;;;7593238;19;20513;-70
2022/12/23 13:55:43;;;;;;;3.93;1.60;;;10.80;99.90;;;;;;7605566;19;20173;-71
2022/12/23 13:58:17;;;;;;;4.35;1.50;;;10.70;99.90;;;;;;7598797;19;20051;-71
2022/12/23 14:01:41;;;;;;;5.63;1.60;;;10.60;99.90;;;;;;7576802;19;20029;-71
2022/12/23 14:04:33;;;;;;;5.50;1.98;;;10.60;99.90;;;;;;7584058;19;20026;-71
2022/12/23 14:07:14;;;;;;;4.45;1.98;;;10.70;99.90;;;;;;7598382;19;20094;-71
2022/12/23 14:09:56;;;;;;;5.45;1.92;;;10.60;99.90;;;;;;7590496;19;20388;-71
2022/12/23 14:12:33;;;;;;;3.30;1.80;;;10.60;99.90;;;;;;7595414;19;20021;-72
2022/12/23 14:15:21;;;;;;;6.25;2.42;;;10.60;99.90;;;;;;7598531;19;20022;-71
2022/12/23 14:18:13;;;;;;;5.03;1.98;;;10.60;99.90;;;;;;7578923;19;20014;-71
2022/12/23 14:21:06;;;;;;;3.15;1.95;;;10.60;99.90;;;;;;7587759;19;20473;-71
2022/12/23 14:23:41;;;;;;;3.63;2.45;;;10.50;99.90;;;;;;7606715;19;20078;-71
2022/12/23 14:26:40;;;;;;;6.15;2.35;;;10.50;99.90;;;;;;7608610;19;20010;-71
2022/12/23 14:29:42;;;;;;;3.25;1.98;;;10.40;99.90;;;;;;7607259;19;20494;-70
2022/12/23 14:32:19;;;;;;;4.63;2.08;;;10.50;99.90;;;;;;7611370;19;20497;-71
2022/12/23 14:35:25;;;;;;;3.63;1.50;;;10.40;99.90;;;;;;7608176;19;20024;-71
2022/12/23 14:38:06;;;;;;;3.15;1.70;;;10.40;99.90;;;;;;7594932;19;20680;-71
2022/12/23 14:40:38;;;;;;;4.45;1.63;;;10.40;99.90;;;;;;7596081;19;20521;-71
2022/12/23 14:43:25;;;;;;;5.57;2.55;;;10.30;99.90;;;;;;7597224;19;20031;-72
2022/12/23 14:46:00;;;;;;;8.02;3.20;;;10.30;99.90;;;;;;7536627;19;20014;-71
2022/12/23 14:48:32;;;;;;;9.65;4.30;;;10.40;99.90;;;;;;7550119;19;20258;-70
2022/12/23 14:51:07;;;;;;;11.48;4.28;;;10.30;99.90;;;;;;7557929;19;20022;-72
2022/12/23 14:53:57;;;;;;;14.65;4.55;;;10.20;99.90;;;;;;7575615;19;20057;-70
2022/12/23 14:56:42;;;;;;;10.70;4.10;;;10.20;99.90;;;;;;7555284;19;20034;-72
2022/12/23 14:59:45;;;;;;;11.93;5.93;;;10.20;99.90;;;;;;7566821;19;20078;-71
2022/12/23 15:02:40;;;;;;;13.52;6.22;;;10.20;99.90;;;;;;7561351;19;20022;-72
2022/12/23 15:05:12;;;;;;;6.50;3.75;;;10.20;99.90;;;;;;7530499;19;21846;-71
2022/12/23 15:07:46;;;;;;;7.97;4.88;;;10.20;99.90;;;;;;7543616;19;20054;-71
2022/12/23 15:10:24;;;;;;;6.97;3.88;;;10.10;99.90;;;;;;7563856;19;20057;-72
2022/12/23 15:13:01;;;;;;;5.15;3.10;;;10.10;99.90;;;;;;7539515;19;20028;-71
2022/12/23 15:15:34;;;;;;;4.47;2.10;;;10.10;99.90;;;;;;7571692;19;22282;-72
2022/12/23 15:18:12;;;;;;;4.22;2.47;;;10.10;99.90;;;;;;7536373;19;20049;-70
2022/12/23 15:20:56;;;;;;;4.43;2.55;;;10.10;99.90;;;;;;7574571;19;21102;-71
2022/12/23 15:23:32;;;;;;;2.95;2.00;;;10.20;99.90;;;;;;7550984;19;20664;-70
2022/12/23 15:26:04;;;;;;;5.13;2.38;;;10.10;99.90;;;;;;7519350;19;20030;-71
2022/12/23 15:28:40;;;;;;;6.03;2.77;;;10.10;99.90;;;;;;7519779;19;20610;-71
2022/12/23 15:31:22;;;;;;;4.00;1.90;;;10.00;99.90;;;;;;7534711;19;20589;-72
2022/12/23 15:33:55;;;;;;;3.55;2.33;;;10.10;99.90;;;;;;7580804;19;20038;-71
2022/12/23 15:36:42;;;;;;;5.45;3.05;;;10.10;99.90;;;;;;7538135;19;20014;-71
2022/12/23 15:39:23;;;;;;;3.67;2.13;;;10.10;99.90;;;;;;7038860;19;10000369;-71
2022/12/23 15:42:01;;;;;;;4.00;2.28;;;10.10;99.90;;;;;;7530464;19;20018;-72
2022/12/23 15:44:37;;;;;;;1.95;1.55;;;10.10;99.90;;;;;;7506267;19;20021;-72
2022/12/23 15:47:41;;;;;;;4.18;2.00;;;10.10;99.90;;;;;;7533446;19;20011;-71
2022/12/23 15:50:16;;;;;;;5.82;2.70;;;10.10;99.90;;;;;;7574859;19;20700;-70
2022/12/23 15:52:49;;;;;;;4.40;2.88;;;10.10;99.90;;;;;;7563774;19;20940;-70
2022/12/23 15:55:30;;;;;;;3.13;1.90;;;10.00;99.90;;;;;;7566056;19;21351;-71
2022/12/23 15:58:03;;;;;;;7.72;2.42;;;10.10;99.90;;;;;;7559912;19;20033;-72
2022/12/23 16:00:48;;;;;;;5.45;2.60;;;10.10;99.90;;;;;;7568681;19;20021;-71
2022/12/23 16:03:26;;;;;;;4.80;2.42;;;10.10;99.90;;;;;;7592976;19;20018;-72
2022/12/23 16:06:19;;;;;;;2.70;2.08;;;10.20;99.90;;;;;;7553901;19;20011;-72
2022/12/23 16:09:02;;;;;;;4.53;2.42;;;10.10;99.90;;;;;;7568051;19;20018;-72
2022/12/23 16:11:39;;;;;;;6.72;2.97;;;10.10;99.90;;;;;;7560656;19;20029;-72
2022/12/23 16:14:30;;;;;;;3.78;2.58;;;10.10;99.90;;;;;;7544146;19;20057;-73
2022/12/23 16:17:08;;;;;;;3.47;2.10;;;10.10;99.90;;;;;;7552988;19;20085;-70
2022/12/23 16:19:47;;;;;;;6.47;3.35;;;10.10;99.90;;;;;;7577669;19;20055;-70
2022/12/23 16:22:23;;;;;;;4.38;2.58;;;10.10;99.90;;;;;;7587787;19;20026;-69
2022/12/23 16:24:55;;;;;;;3.83;2.38;;;10.20;99.90;;;;;;7575694;19;20015;-70
2022/12/23 16:27:39;;;;;;;3.88;2.58;;;10.10;99.90;;;;;;7567057;19;20120;-70
2022/12/23 16:30:19;;;;;;;4.93;2.40;;;10.00;99.90;;;;;;7560718;19;20015;-69
2022/12/23 16:32:56;;;;;;;3.78;2.35;;;10.10;99.90;;;;;;7569906;19;20022;-69
2022/12/23 16:35:33;;;;;;;3.33;2.33;;;10.10;99.90;;;;;;7552404;19;20022;-69
2022/12/23 16:38:15;;;;;;;2.72;1.80;;;10.10;99.90;;;;;;7561959;19;20017;-69
2022/12/23 16:40:53;;;;;;;9.93;1.73;;;10.10;99.90;;;;;;7565513;19;25415;-69
2022/12/23 16:43:26;;;;;;;2.42;1.42;;;10.20;99.90;;;;;;7571596;19;20268;-69
2022/12/23 16:45:58;;;;;;;1.63;1.30;;;10.20;99.90;;;;;;7540454;19;20014;-70
2022/12/23 16:48:39;;;;;;;3.13;2.28;;;10.30;99.90;;;;;;7570353;19;20499;-70
2022/12/23 16:51:17;;;;;;;3.38;1.52;;;10.30;99.90;;;;;;7554461;19;22913;-69
2022/12/23 16:53:51;;;;;;;4.32;2.40;;;10.30;99.90;;;;;;7540683;19;20010;-69
2022/12/23 16:56:28;;;;;;;3.38;1.30;;;10.30;99.90;;;;;;7552889;19;20663;-69
2022/12/23 16:59:04;;;;;;;4.35;1.98;;;10.40;99.90;;;;;;7541101;19;20022;-69
2022/12/23 17:01:40;;;;;;;5.88;2.53;;;10.50;99.90;;;;;;7583319;19;20488;-70
2022/12/23 17:04:14;;;;;;;3.70;1.70;;;10.40;99.90;;;;;;7577630;19;20137;-70
2022/12/23 17:06:46;;;;;;;6.63;3.23;;;10.50;99.90;;;;;;7578542;19;20601;-69
2022/12/23 17:09:18;;;;;;;3.00;1.80;;;10.50;99.90;;;;;;7558028;19;20002;-70
2022/12/23 17:11:52;;;;;;;2.00;1.20;;;10.40;99.90;;;;;;7568227;19;20010;-70
2022/12/23 17:14:24;;;;;;;6.40;3.22;;;10.50;99.90;;;;;;7593561;19;20018;-71
2022/12/23 17:16:57;;;;;;;8.30;4.20;;;10.50;99.90;;;;;;7589143;19;20019;-70
2022/12/23 17:19:30;;;;;;;2.83;1.27;;;10.50;99.90;;;;;;7590893;19;20010;-70
2022/12/23 17:22:03;;;;;;;;;;;10.50;99.90;;;;;;7596680;19;20348;-70
2022/12/23 17:24:36;;;;;;;2.88;1.38;;;10.50;99.90;;;;;;7585395;19;19942;-71
2022/12/23 17:27:15;;;;;;;3.42;2.08;;;10.50;99.90;;;;;;7588227;19;20769;-70
2022/12/23 17:29:47;;;;;;;4.25;1.95;;;10.60;99.90;;;;;;7596860;19;20073;-71
2022/12/23 17:32:19;;;;;;;2.60;1.67;;;10.60;99.90;;;;;;7594914;19;20015;-71
2022/12/23 17:34:51;;;;;;;6.65;1.48;;;10.60;99.90;;;;;;7598191;19;20014;-70
2022/12/23 17:37:23;;;;;;;2.25;1.60;;;10.60;99.90;;;;;;7588317;19;20010;-71
2022/12/23 17:39:56;;;;;;;3.10;1.70;;;10.60;99.90;;;;;;7593618;19;20010;-71
2022/12/23 17:42:29;;;;;;;3.65;1.90;;;10.60;99.90;;;;;;7088171;19;10001351;-70
2022/12/23 17:45:01;;;;;;;4.22;1.90;;;10.60;99.90;;;;;;7075497;19;9999871;-71
2022/12/23 17:47:33;;;;;;;2.40;1.70;;;10.60;99.90;;;;;;7586219;19;20015;-71
2022/12/23 17:50:06;;;;;;;1.88;1.40;;;10.60;99.90;;;;;;7567009;19;20044;-71
2022/12/23 17:52:38;;;;;;;3.80;1.15;;;10.70;99.90;;;;;;7579549;19;20595;-71
2022/12/23 17:55:23;;;;;;;5.88;3.15;;;10.70;99.90;;;;;;7583057;19;20051;-71
2022/12/23 17:57:55;;;;;;;4.13;2.03;;;10.60;99.90;;;;;;7595631;19;21136;-71
2022/12/23 18:00:27;;;;;;;4.18;2.22;;;10.40;99.90;;;;;;7591365;19;20825;-70
2022/12/23 18:03:06;;;;;;;3.90;2.13;;;10.50;99.90;;;;;;7583762;19;20014;-71
2022/12/23 18:05:38;;;;;;;4.50;1.80;;;10.50;99.90;;;;;;7590118;19;20093;-70
2022/12/23 18:08:10;;;;;;;14.23;4.57;;;10.60;99.90;;;;;;7597124;19;20025;-70
2022/12/23 18:10:43;;;;;;;6.15;3.30;;;10.60;99.90;;;;;;7581112;19;20002;-70
2022/12/23 18:13:18;;;;;;;3.08;1.67;;;10.60;99.90;;;;;;7583415;19;20014;-69
2022/12/23 18:15:50;;;;;;;3.83;1.85;;;10.60;99.90;;;;;;7573929;19;20489;-70
2022/12/23 18:18:24;;;;;;;1.95;1.30;;;10.70;99.90;;;;;;7546542;19;20428;-70
2022/12/23 18:21:16;;;;;;;1.58;1.02;;;10.60;99.90;;;;;;7576686;19;21928;-69
2022/12/23 18:23:49;;;;;;;2.97;2.38;;;10.60;99.90;;;;;;7574351;19;20048;-70
2022/12/23 18:26:22;;;;;;;;;;;10.60;99.90;;;;;;7564461;19;20054;-70
2022/12/23 18:28:54;;;;;;;4.63;1.95;;;10.70;99.90;;;;;;7572710;19;19922;-71
2022/12/23 18:31:26;;;;;;;2.83;1.77;;;10.70;99.90;;;;;;7576348;19;20136;-71
2022/12/23 18:34:00;;;;;;;3.17;1.90;;;10.70;99.90;;;;;;7593849;19;20699;-71
2022/12/23 18:36:32;;;;;;;2.20;1.23;;;10.70;99.90;;;;;;7590164;19;20378;-70
2022/12/23 18:39:05;;;;;;;3.95;1.20;;;10.70;99.90;;;;;;7578466;19;20013;-71
2022/12/23 18:41:37;;;;;;;2.08;1.23;;;10.80;99.90;;;;;;7595939;19;20014;-70
2022/12/23 18:44:17;;;;;;;1.85;1.33;;;10.80;99.90;;;;;;7587870;19;20921;-70
2022/12/23 18:46:50;;;;;;;4.18;1.27;;;10.90;99.90;;;;;;7596860;19;20045;-70
2022/12/23 18:49:22;;;;;;;3.17;1.92;;;11.00;99.90;;;;;;7594664;19;20086;-69
2022/12/23 18:51:54;;;;;;;3.55;2.03;;;10.90;99.90;;;;;;7591505;19;20023;-69
2022/12/23 18:54:26;;;;;;;3.38;2.17;;;10.90;99.90;;;;;;7586280;19;20724;-70
2022/12/23 18:57:02;;;;;;;2.95;1.58;;;10.90;99.90;;;;;;7572056;19;20048;-70
2022/12/23 18:59:37;;;;;;;4.85;1.70;;;11.00;99.90;;;;;;7580528;19;20018;-70
2022/12/23 19:02:13;;;;;;;6.97;1.58;;;11.00;99.90;;;;;;7551857;19;20034;-70
2022/12/23 19:04:46;;;;;;;3.83;1.52;;;11.10;99.90;;;;;;7571059;19;20025;-70
2022/12/23 19:07:18;;;;;;;2.75;1.20;;;11.10;99.90;;;;;;7566008;19;20003;-70
2022/12/23 19:09:50;;;;;;;2.90;1.65;;;11.20;99.90;;;;;;7576084;19;20010;-69
2022/12/23 19:12:22;;;;;;;4.43;2.10;;;11.10;99.90;;;;;;7574177;19;20039;-70
2022/12/23 19:14:54;;;;;;;4.95;2.47;;;11.10;99.90;;;;;;7585643;19;20553;-69
2022/12/23 19:17:26;;;;;;;2.92;1.40;;;11.20;99.90;;;;;;7549773;19;20667;-70
2022/12/23 19:19:59;;;;;;;5.28;2.80;;;11.30;99.90;;;;;;7545301;19;20028;-70
2022/12/23 19:22:31;;;;;;;8.95;4.22;;;11.30;99.90;;;;;;7531195;19;21056;-69
2022/12/23 19:25:04;;;;;;;16.10;7.00;;;11.30;99.90;;;;;;7549783;19;20034;-70
2022/12/23 19:27:38;;;;;;;15.32;5.35;;;11.20;99.90;;;;;;7589032;19;20023;-70
2022/12/23 19:30:14;;;;;;;21.92;8.60;;;11.20;99.90;;;;;;7573652;19;20018;-70
2022/12/23 19:32:50;;;;;;;13.23;3.75;;;11.30;99.90;;;;;;7561032;19;20022;-70
2022/12/23 19:35:22;;;;;;;5.28;2.67;;;11.30;99.90;;;;;;7543726;19;20296;-70
2022/12/23 19:37:55;;;;;;;11.90;5.07;;;11.30;99.90;;;;;;7566438;19;20049;-69
2022/12/23 19:40:28;;;;;;;3.33;1.58;;;11.40;99.90;;;;;;7568075;19;20015;-69
2022/12/23 19:43:00;;;;;;;2.83;1.80;;;11.50;99.90;;;;;;7576721;19;20048;-69
2022/12/23 19:45:32;;;;;;;5.65;2.60;;;11.50;99.90;;;;;;7538194;19;20018;-70
2022/12/23 19:48:05;;;;;;;5.00;2.40;;;11.50;99.90;;;;;;7574186;19;20023;-69
2022/12/23 19:50:37;;;;;;;10.57;5.82;;;11.50;99.90;;;;;;7544048;19;20117;-69
2022/12/23 19:53:10;;;;;;;4.35;1.73;;;11.50;99.90;;;;;;7535308;19;20027;-71
2022/12/23 19:55:42;;;;;;;4.50;2.13;;;11.60;99.90;;;;;;7587231;19;20467;-70
2022/12/23 19:58:15;;;;;;;1.17;0.70;;;11.70;99.90;;;;;;7584697;19;20051;-71
2022/12/23 20:00:47;;;;;;;2.00;1.15;;;11.70;99.90;;;;;;7568035;19;20077;-70
2022/12/23 20:03:19;;;;;;;2.80;1.52;;;11.80;99.90;;;;;;7584476;19;20669;-71
2022/12/23 20:05:51;;;;;;;6.93;3.25;;;11.80;99.90;;;;;;7567545;19;20628;-70
2022/12/23 20:08:23;;;;;;;3.83;2.00;;;11.70;99.90;;;;;;7566818;19;20413;-71
2022/12/23 20:11:07;;;;;;;1.90;1.10;;;11.70;99.90;;;;;;7572637;19;20121;-71
2022/12/23 20:13:39;;;;;;;3.53;1.52;;;11.70;99.90;;;;;;7577909;19;20037;-71
2022/12/23 20:16:12;;;;;;;3.35;1.45;;;11.80;99.90;;;;;;7595814;19;20022;-71
2022/12/23 20:18:44;;;;;;;2.35;1.27;;;11.70;99.90;;;;;;7600164;19;20106;-72
2022/12/23 20:21:17;;;;;;;2.20;0.98;;;11.70;99.90;;;;;;7587535;19;20011;-71
2022/12/23 20:23:50;;;;;;;0.50;0.50;;;11.80;99.90;;;;;;7592471;19;20032;-71
2022/12/23 20:26:26;;;;;;;1.07;0.73;;;11.90;99.90;;;;;;7593581;19;20011;-71
2022/12/23 20:28:58;;;;;;;1.95;1.20;;;11.80;99.90;;;;;;7567061;19;20026;-71
2022/12/23 20:31:34;;;;;;;2.03;1.30;;;11.80;99.90;;;;;;7569711;19;20021;-72
2022/12/23 20:34:10;;;;;;;2.95;0.90;;;11.80;99.90;;;;;;7568607;19;20056;-72
2022/12/23 20:36:42;;;;;;;2.22;0.95;;;11.90;99.90;;;;;;7545890;19;20014;-72
2022/12/23 20:39:16;;;;;;;2.05;0.82;;;11.90;99.90;;;;;;7583436;19;20018;-72
2022/12/23 20:41:48;;;;;;;0.68;0.60;;;11.90;99.90;;;;;;7572620;19;20139;-71
2022/12/23 20:44:20;;;;;;;2.90;0.80;;;11.90;99.90;;;;;;7560522;19;20049;-76
2022/12/23 20:47:08;;;;;;;0.57;0.50;;;11.90;99.90;;;;;;7563018;19;20589;-78
2022/12/23 20:49:41;;;;;;;2.70;1.17;;;11.90;99.90;;;;;;7588126;19;20014;-79
2022/12/23 20:52:13;;;;;;;1.55;0.80;;;11.90;99.90;;;;;;7585726;19;20044;-78
2022/12/23 20:54:45;;;;;;;2.88;1.30;;;11.80;99.90;;;;;;7557001;19;20017;-77